createdAt,value
2018-11-23T00:02:32.113Z,8.98
2018-11-23T00:08:27.133Z,9.5
2018-11-23T00:14:22.145Z,7.98
2018-11-23T00:20:17.182Z,11.47
2018-11-23T00:26:12.179Z,14.25
2018-11-23T00:32:07.241Z,13.47
2018-11-23T00:38:02.166Z,15.7
2018-11-23T00:43:57.213Z,15.28
2018-11-23T00:49:52.172Z,16.12
2018-11-23T00:55:47.219Z,14.72
2018-11-23T01:01:42.173Z,13.72
2018-11-23T01:07:37.179Z,13.53
2018-11-23T01:13:32.197Z,13.28
2018-11-23T01:19:27.210Z,12.73
2018-11-23T01:25:22.209Z,13.08
2018-11-23T01:31:17.201Z,14.7
2018-11-23T01:37:12.241Z,14.13
2018-11-23T01:43:07.220Z,10.86
2018-11-23T01:49:02.268Z,10.89
2018-11-23T01:54:57.309Z,8.4
2018-11-23T02:00:52.233Z,9.11
2018-11-23T02:06:47.259Z,10.11
2018-11-23T02:12:42.256Z,8.5
2018-11-23T02:18:37.267Z,6.88
2018-11-23T02:24:32.274Z,10.34
2018-11-23T02:30:27.282Z,11.57
2018-11-23T02:36:22.252Z,11.58
2018-11-23T02:42:17.262Z,11.63
2018-11-23T02:48:12.283Z,11.63
2018-11-23T02:54:07.281Z,12.59
2018-11-23T03:00:02.301Z,12.4
2018-11-23T03:05:57.318Z,13.03
2018-11-23T03:11:52.300Z,14.59
2018-11-23T03:17:47.286Z,17
2018-11-23T03:23:42.294Z,15.17
2018-11-23T03:29:37.316Z,9.57
2018-11-23T03:35:32.327Z,8.61
2018-11-23T03:41:27.314Z,5.68
2018-11-23T03:47:22.353Z,5.32
2018-11-23T03:53:17.338Z,4.9
2018-11-23T03:59:12.351Z,4.05
2018-11-23T04:05:07.338Z,4.9
2018-11-23T04:11:02.387Z,4.31
2018-11-23T04:16:57.361Z,4.21
2018-11-23T04:22:52.346Z,4.81
2018-11-23T04:28:47.371Z,4.84
2018-11-23T04:34:42.357Z,9.89
2018-11-23T04:40:37.390Z,10.64
2018-11-23T04:46:32.373Z,13.77
2018-11-23T04:52:27.364Z,14.04
2018-11-23T04:58:22.386Z,14.05
2018-11-23T05:04:17.389Z,13.54
2018-11-23T05:10:12.387Z,15.77
2018-11-23T05:16:07.400Z,16.52
2018-11-23T05:22:02.404Z,16.64
2018-11-23T05:27:57.448Z,16.24
2018-11-23T05:33:52.519Z,15.87
2018-11-23T05:39:47.441Z,14.99
2018-11-23T05:45:42.438Z,15.56
2018-11-23T05:51:37.408Z,16.06
2018-11-23T05:57:32.434Z,16.7
2018-11-23T06:03:27.453Z,15.94
2018-11-23T06:09:22.475Z,14.99
2018-11-23T06:15:17.490Z,13.85
2018-11-23T06:21:12.462Z,15.5
2018-11-23T06:27:07.554Z,15.52
2018-11-23T06:33:02.505Z,16
2018-11-23T06:38:57.456Z,15.95
2018-11-23T06:44:52.476Z,16.11
2018-11-23T06:50:47.524Z,15.8
2018-11-23T06:56:42.482Z,16.32
2018-11-23T07:02:37.513Z,15.97
2018-11-23T07:08:32.480Z,16.22
2018-11-23T07:14:27.509Z,17.34
2018-11-23T07:20:22.518Z,16.14
2018-11-23T07:26:17.526Z,14.67
2018-11-23T07:32:12.510Z,17.04
2018-11-23T07:38:07.522Z,18.7
2018-11-23T07:44:02.521Z,18.36
2018-11-23T07:49:57.532Z,16.11
2018-11-23T07:55:52.551Z,15.73
2018-11-23T08:01:47.547Z,15.21
2018-11-23T08:07:42.535Z,14.21
2018-11-23T08:13:37.579Z,14.9
2018-11-23T08:19:32.569Z,14.93
2018-11-23T08:25:27.562Z,15.2
2018-11-23T08:31:22.568Z,15.23
2018-11-23T08:37:17.621Z,17.79
2018-11-23T08:43:12.593Z,17.56
2018-11-23T08:49:07.684Z,17.66
2018-11-23T08:55:02.575Z,18.03
2018-11-23T09:00:57.608Z,16.56
2018-11-23T09:06:52.617Z,15.7
2018-11-23T09:12:47.582Z,18.78
2018-11-23T09:18:42.625Z,17.91
2018-11-23T09:24:37.592Z,16.37
2018-11-23T09:30:32.687Z,16.1
2018-11-23T09:36:27.637Z,16.32
2018-11-23T09:42:22.631Z,17.41
2018-11-23T09:48:17.662Z,18.96
2018-11-23T09:54:12.668Z,23.88
2018-11-23T10:00:07.656Z,23.7
2018-11-23T10:06:02.637Z,25.48
2018-11-23T10:11:57.654Z,24.92
2018-11-23T10:17:52.692Z,24.87
2018-11-23T10:23:47.691Z,23.13
2018-11-23T10:29:42.672Z,20.66
2018-11-23T10:35:37.691Z,21.85
2018-11-23T10:41:32.685Z,19.56
2018-11-23T10:47:27.711Z,20.5
2018-11-23T10:53:22.694Z,16.92
2018-11-23T10:59:17.690Z,17.56
2018-11-23T11:05:12.706Z,17.3
2018-11-23T11:11:08.156Z,11.63
2018-11-23T11:17:02.725Z,6.98
2018-11-23T11:22:57.699Z,6.13
2018-11-23T11:28:52.725Z,5.86
2018-11-23T11:34:47.758Z,5.77
2018-11-23T11:40:42.755Z,6.38
2018-11-23T11:46:37.735Z,6.64
2018-11-23T11:52:32.741Z,7.15
2018-11-23T11:58:27.754Z,5.05
2018-11-23T12:04:23.052Z,4.35
2018-11-23T12:10:17.784Z,4.46
2018-11-23T12:16:12.784Z,9.94
2018-11-23T12:22:07.760Z,18.55
2018-11-23T12:28:02.770Z,17.04
2018-11-23T12:33:57.789Z,16.61
2018-11-23T12:39:52.819Z,17.91
2018-11-23T12:45:47.774Z,19.74
2018-11-23T12:51:42.809Z,14.6
2018-11-23T12:57:37.796Z,13.28
2018-11-23T13:03:32.829Z,13.27
2018-11-23T13:09:27.878Z,13.98
2018-11-23T13:15:22.816Z,13.02
2018-11-23T13:21:17.823Z,12.81
2018-11-23T13:27:12.811Z,14.42
2018-11-23T13:33:07.826Z,13.18
2018-11-23T13:39:02.842Z,14.2
2018-11-23T13:44:57.868Z,14.65
2018-11-23T13:50:52.849Z,16.4
2018-11-23T13:56:47.840Z,14.28
2018-11-23T14:02:42.894Z,13.03
2018-11-23T14:08:37.843Z,9.35
2018-11-23T14:14:32.867Z,6.38
2018-11-23T14:20:27.883Z,5.16
2018-11-23T14:26:22.878Z,6.03
2018-11-23T14:32:17.871Z,5.31
2018-11-23T14:38:12.917Z,5.43
2018-11-23T14:44:07.871Z,22.46
2018-11-23T14:50:02.923Z,23.52
2018-11-23T14:55:57.899Z,20.7
2018-11-23T15:01:52.938Z,3.67
2018-11-23T15:07:47.894Z,19.51
2018-11-23T15:13:42.895Z,19.16
2018-11-23T15:19:37.904Z,16.95
2018-11-23T15:25:32.930Z,16.29
2018-11-23T15:31:27.925Z,18.47
2018-11-23T15:37:22.970Z,15.73
2018-11-23T15:43:17.933Z,13.89
2018-11-23T15:49:12.933Z,5.13
2018-11-23T15:55:07.944Z,3.75
2018-11-23T16:01:02.946Z,3.79
2018-11-23T16:06:57.962Z,3.59
2018-11-23T16:12:52.969Z,8.24
2018-11-23T16:18:47.953Z,5.43
2018-11-23T16:24:42.985Z,7.4
2018-11-23T16:30:37.971Z,7.73
2018-11-23T16:36:32.986Z,7.83
2018-11-23T16:42:28.031Z,8.42
2018-11-23T16:48:22.994Z,9.63
2018-11-23T16:54:18.031Z,9.02
2018-11-23T17:00:13.033Z,7.86
2018-11-23T17:06:08.089Z,8.11
2018-11-23T17:12:03.062Z,12.32
2018-11-23T17:17:58.027Z,4.56
2018-11-23T17:23:53.031Z,3.8
2018-11-23T17:29:48.044Z,5.1
2018-11-23T17:35:43.031Z,11.04
2018-11-23T17:41:38.010Z,13.78
2018-11-23T17:47:33.133Z,11.07
2018-11-23T17:53:28.028Z,10.48
2018-11-23T17:59:23.059Z,10.19
2018-11-23T18:05:18.087Z,15.47
2018-11-23T18:11:13.118Z,20.73
2018-11-23T18:17:08.092Z,10.53
2018-11-23T18:23:03.083Z,11.27
2018-11-23T18:28:58.111Z,11.15
2018-11-23T18:34:53.093Z,11.64
2018-11-23T18:40:48.100Z,13.56
2018-11-23T18:46:43.134Z,13.37
2018-11-23T18:52:38.144Z,9.53
2018-11-23T18:58:33.119Z,15.94
2018-11-23T19:04:28.117Z,12.88
2018-11-23T19:10:23.198Z,12.54
2018-11-23T19:16:18.108Z,12.47
2018-11-23T19:22:13.162Z,12.6
2018-11-23T19:28:08.136Z,11.53
2018-11-23T19:34:03.163Z,10.88
2018-11-23T19:39:58.130Z,12.51
2018-11-23T19:45:53.142Z,10.66
2018-11-23T19:51:48.152Z,12.21
2018-11-23T19:57:43.161Z,11.25
2018-11-23T20:03:38.163Z,11.65
2018-11-23T20:09:33.547Z,13.56
2018-11-23T20:15:28.147Z,14.5
2018-11-23T20:21:23.206Z,14.54
2018-11-23T20:27:18.169Z,16.15
2018-11-23T20:33:13.185Z,16.76
2018-11-23T20:39:08.223Z,17.46
2018-11-23T20:45:03.214Z,17.35
2018-11-23T20:50:58.200Z,16.49
2018-11-23T20:56:53.186Z,15.87
2018-11-23T21:02:48.213Z,17.72
2018-11-23T21:08:43.225Z,18.92
2018-11-23T21:14:38.221Z,16.82
2018-11-23T21:20:33.220Z,12.67
2018-11-23T21:26:28.233Z,11.77
2018-11-23T21:32:23.269Z,11.32
2018-11-23T21:38:18.268Z,10.59
2018-11-23T21:44:13.251Z,10.4
2018-11-23T21:50:08.237Z,11.94
2018-11-23T21:56:09.254Z,11.28
2018-11-23T22:01:58.275Z,11.76
2018-11-23T22:07:53.258Z,11.93
2018-11-23T22:13:48.295Z,13.49
2018-11-23T22:19:43.275Z,13.57
2018-11-23T22:25:38.283Z,13.14
2018-11-23T22:31:33.290Z,11.94
2018-11-23T22:37:28.289Z,12
2018-11-23T22:43:23.299Z,11.69
2018-11-23T22:49:18.296Z,11.12
2018-11-23T22:55:13.294Z,12.09
2018-11-23T23:01:08.316Z,10.94
2018-11-23T23:07:03.357Z,9.95
2018-11-23T23:12:58.318Z,9.67
2018-11-23T23:18:53.359Z,8.73
2018-11-23T23:24:48.357Z,10
2018-11-23T23:30:43.344Z,8.51
2018-11-23T23:36:38.330Z,8.29
2018-11-23T23:42:33.351Z,9.08
2018-11-23T23:48:28.350Z,8.94
2018-11-23T23:54:23.367Z,10.59
